KATW/ATW METAR and TAF weather

Enter ICAO airport designator
Station Type Date Time Source
KATW METAR 2021/07/28 19:45 UTC NOAA

KATW 281945Z VRB05KT 10SM SCT023 SCT120 27/20 A2997


Station Type Date Time Source
KATW Decoded METAR 2021/07/28 19:45 UTC NOAA

Appleton / Outagamie, WI, United States (KATW) 44-15N 088-31W
Jul 28, 2021 - 03:45 PM EDT / 2021.07.28 1945 UTC
Wind: Variable at 6 MPH (5 KT):0
Visibility: 10 mile(s):0
Sky conditions: partly cloudy
Temperature: 80 F (27 C)
Dew Point: 68 F (20 C)
Relative Humidity: 65%
Pressure (altimeter): 29.97 in. Hg (1014 hPa)
ob: KATW 281945Z VRB05KT 10SM SCT023 SCT120 27/20 A2997
cycle: 20

Station Type Date Time Source
KATW TAF 2021/07/28 18:30 UTC NOAA

TAF KATW 281729Z 2818/2918 16006KT P6SM BKN200
FM290300 13009KT 5SM -SHRA BR SCT025 OVC050
TEMPO 2903/2906 33035G50KT 1SM +TSRA SCT012 BKN025CB
FM290800 VRB04KT 5SM BR BKN015
TEMPO 2909/2912 2SM BR SCT005
FM291200 35008KT 6SM BR BKN020
FM291500 35011G18KT P6SM BKN040

Example: see airport list